Time;durP1;ratioP1;P1;durP2;ratioP2;P2;SDS_P1;SDS_P2;PMS_P1;PMS_P2;Temp;Humidity;BMP_temperature;BMP_pressure;BME280_temperature;BME280_humidity;BME280_pressure;Samples;Min_cycle;Max_cycle;Signal;HPM_P1;HPM_P2
2022/08/04 00:01:32;;;;;;;;;;;26.70;60.40;;;;;;5090562;28;19912;-81
2022/08/04 00:04:02;;;;;;;;;;;26.60;60.40;;;;;;5089925;28;19961;-82
2022/08/04 00:06:51;;;;;;;;;;;26.60;60.60;;;;;;5090385;28;19923;-81
2022/08/04 00:09:28;;;;;;;;;;;26.50;60.80;;;;;;5090454;28;20045;-69
2022/08/04 00:11:56;;;;;;;;;;;26.50;60.80;;;;;;5083027;28;20441;-70
2022/08/04 00:14:23;;;;;;;;;;;26.40;60.80;;;;;;5094366;28;19919;-68
2022/08/04 00:16:51;;;;;;;;;;;26.40;60.90;;;;;;5088947;28;19912;-82
2022/08/04 00:19:30;;;;;;;;;;;26.40;60.80;;;;;;5096179;28;19920;-80
2022/08/04 00:22:01;;;;;;;;;;;26.40;60.70;;;;;;5094928;28;19916;-80
2022/08/04 00:24:28;;;;;;;;;;;26.40;60.70;;;;;;5095110;28;19959;-81
2022/08/04 00:26:54;;;;;;;;;;;26.30;60.70;;;;;;5091076;28;20022;-81
2022/08/04 00:29:20;;;;;;;;;;;26.30;60.80;;;;;;5089571;28;19999;-81
2022/08/04 00:31:46;;;;;;;;;;;26.30;60.80;;;;;;5096974;28;19919;-81
2022/08/04 00:34:12;;;;;;;;;;;26.30;60.80;;;;;;5089924;28;19935;-80
2022/08/04 00:36:41;;;;;;;;;;;26.30;60.90;;;;;;5089195;28;19916;-81
2022/08/04 00:39:10;;;;;;;;;;;26.20;60.90;;;;;;5088855;28;19916;-81
2022/08/04 00:41:40;;;;;;;;;;;26.20;61.10;;;;;;5069367;28;20390;-81
2022/08/04 00:44:11;;;;;;;;;;;26.10;61.30;;;;;;5087184;28;20069;-81
2022/08/04 00:46:40;;;;;;;;;;;26.10;61.50;;;;;;5100049;28;20359;-81
2022/08/04 00:49:08;;;;;;;;;;;26.00;61.60;;;;;;5088175;28;19912;-81
2022/08/04 00:51:45;;;;;;;;;;;25.90;61.70;;;;;;5081742;28;19919;-80
2022/08/04 00:54:11;;;;;;;;;;;25.80;61.80;;;;;;5091102;28;20379;-68
2022/08/04 00:56:37;;;;;;;;;;;25.80;61.90;;;;;;5082944;28;20005;-68
2022/08/04 00:59:05;;;;;;;;;;;25.70;62.00;;;;;;5078462;28;19962;-68
2022/08/04 01:01:44;;;;;;;;;;;25.70;62.10;;;;;;5091544;28;19919;-69
2022/08/04 01:04:15;;;;;;;;;;;25.70;62.30;;;;;;5080459;28;19943;-69
2022/08/04 01:06:41;;;;;;;;;;;25.60;62.20;;;;;;5091060;28;19919;-69
2022/08/04 01:09:38;;;;;;;;;;;25.60;62.50;;;;;;5093180;28;19920;-69
2022/08/04 01:12:04;;;;;;;;;;;25.60;62.50;;;;;;5057664;28;20258;-69
2022/08/04 01:14:33;;;;;;;;;;;25.50;62.60;;;;;;5090066;28;19912;-69
2022/08/04 01:17:17;;;;;;;;;;;25.50;62.80;;;;;;5091074;28;19912;-69
2022/08/04 01:20:03;;;;;;;;;;;25.40;63.00;;;;;;5088400;28;20360;-69
2022/08/04 01:22:31;;;;;;;;;;;25.40;63.10;;;;;;5088011;28;19916;-82
2022/08/04 01:25:15;;;;;;;;;;;25.30;63.10;;;;;;5092605;28;19919;-81
2022/08/04 01:27:59;;;;;;;;;;;25.30;63.30;;;;;;5085750;28;19912;-81
2022/08/04 01:30:26;;;;;;;;;;;25.30;63.40;;;;;;5086673;28;19954;-81
2022/08/04 01:32:55;;;;;;;;;;;25.20;63.40;;;;;;5081764;28;19912;-81
2022/08/04 01:35:20;;;;;;;;;;;25.20;63.50;;;;;;5092888;28;19966;-81
2022/08/04 01:38:06;;;;;;;;;;;25.10;63.50;;;;;;5091921;28;20375;-81
2022/08/04 01:40:32;;;;;;;;;;;25.10;63.60;;;;;;5090683;28;19912;-81
2022/08/04 01:42:59;;;;;;;;;;;25.10;63.80;;;;;;5091619;28;19965;-81
2022/08/04 01:45:24;;;;;;;;;;;25.00;63.90;;;;;;5092886;28;19952;-80
2022/08/04 01:47:51;;;;;;;;;;;25.00;64.00;;;;;;5084238;28;19951;-81
2022/08/04 01:50:16;;;;;;;;;;;24.90;64.00;;;;;;5086064;28;19920;-80
2022/08/04 01:52:43;;;;;;;;;;;24.90;64.20;;;;;;5085359;28;20378;-69
2022/08/04 01:55:11;;;;;;;;;;;24.90;64.20;;;;;;5087975;28;19963;-69
2022/08/04 01:57:41;;;;;;;;;;;24.80;64.20;;;;;;5089562;28;19940;-69
2022/08/04 02:00:07;;;;;;;;;;;24.80;64.40;;;;;;5091514;28;19927;-69
2022/08/04 02:02:35;;;;;;;;;;;24.80;64.50;;;;;;5091281;28;19920;-69
2022/08/04 02:05:01;;;;;;;;;;;24.80;64.40;;;;;;5072124;28;20424;-69
2022/08/04 02:07:36;;;;;;;;;;;24.80;64.40;;;;;;5090727;28;19916;-70
2022/08/04 02:10:06;;;;;;;;;;;24.80;64.30;;;;;;5091929;28;20271;-81
2022/08/04 02:12:52;;;;;;;;;;;24.80;64.40;;;;;;5090262;28;19947;-70
2022/08/04 02:15:18;;;;;;;;;;;24.80;64.40;;;;;;5086946;28;20413;-70
2022/08/04 02:17:55;;;;;;;;;;;24.80;64.50;;;;;;5088650;28;19951;-70
2022/08/04 02:20:28;;;;;;;;;;;24.70;64.60;;;;;;5099141;28;19927;-69
2022/08/04 02:23:05;;;;;;;;;;;24.70;64.60;;;;;;5090014;28;19916;-70
2022/08/04 02:25:45;;;;;;;;;;;24.60;64.60;;;;;;5088021;28;19916;-69
2022/08/04 02:28:14;;;;;;;;;;;24.60;64.70;;;;;;5090687;28;19912;-69
2022/08/04 02:30:42;;;;;;;;;;;24.60;64.90;;;;;;5090793;28;19989;-70
2022/08/04 02:33:09;;;;;;;;;;;24.50;65.00;;;;;;5091777;28;19985;-81
2022/08/04 02:35:35;;;;;;;;;;;24.50;65.20;;;;;;5091044;28;20018;-81
2022/08/04 02:38:24;;;;;;;;;;;24.40;65.10;;;;;;5090401;28;19916;-70
2022/08/04 02:40:50;;;;;;;;;;;24.40;65.10;;;;;;5068480;28;19908;-81
2022/08/04 02:43:18;;;;;;;;;;;24.40;65.20;;;;;;5090753;28;19947;-81
2022/08/04 02:45:45;;;;;;;;;;;24.40;65.10;;;;;;5091231;28;19913;-82
2022/08/04 02:48:10;;;;;;;;;;;24.40;65.00;;;;;;5092563;28;20278;-81
2022/08/04 02:50:36;;;;;;;;;;;24.40;65.00;;;;;;5089016;28;19919;-69
2022/08/04 02:53:03;;;;;;;;;;;24.40;65.00;;;;;;5080288;28;20411;-69
2022/08/04 02:55:29;;;;;;;;;;;24.50;64.90;;;;;;5087424;28;19916;-69
2022/08/04 02:57:55;;;;;;;;;;;24.50;64.90;;;;;;5091102;28;20330;-69
2022/08/04 03:00:21;;;;;;;;;;;24.40;65.00;;;;;;5089617;28;20426;-69
2022/08/04 03:03:05;;;;;;;;;;;24.40;65.10;;;;;;5084128;28;20031;-69
2022/08/04 03:05:37;;;;;;;;;;;24.40;65.20;;;;;;5091696;28;19922;-82
2022/08/04 03:08:21;;;;;;;;;;;24.40;65.10;;;;;;5091553;28;19912;-81
2022/08/04 03:10:59;;;;;;;;;;;24.30;65.10;;;;;;5080839;28;19916;-81
2022/08/04 03:13:35;;;;;;;;;;;24.30;65.20;;;;;;5089646;28;19915;-69
2022/08/04 03:16:16;;;;;;;;;;;24.30;65.10;;;;;;5090225;28;19916;-69
2022/08/04 03:18:47;;;;;;;;;;;24.30;65.10;;;;;;5101902;28;19912;-80
2022/08/04 03:21:22;;;;;;;;;;;24.20;65.10;;;;;;5084444;28;19920;-81
2022/08/04 03:24:00;;;;;;;;;;;24.20;65.10;;;;;;5088221;28;19931;-69
2022/08/04 03:26:44;;;;;;;;;;;24.20;65.10;;;;;;5092086;28;20384;-69
2022/08/04 03:29:32;;;;;;;;;;;24.20;65.10;;;;;;5083780;28;20416;-69
2022/08/04 03:32:30;;;;;;;;;;;24.20;65.10;;;;;;5062266;28;19916;-69
2022/08/04 03:34:56;;;;;;;;;;;24.20;65.20;;;;;;5058883;28;19916;-70
2022/08/04 03:37:40;;;;;;;;;;;24.10;65.20;;;;;;5092732;28;20316;-70
2022/08/04 03:40:15;;;;;;;;;;;24.10;65.30;;;;;;5091670;28;19916;-70
2022/08/04 03:42:46;;;;;;;;;;;24.10;65.40;;;;;;5094178;28;20378;-70
2022/08/04 03:45:20;;;;;;;;;;;24.10;65.40;;;;;;5100494;27;20454;-70
2022/08/04 03:47:55;;;;;;;;;;;24.10;65.50;;;;;;5094111;28;19920;-70
2022/08/04 03:50:30;;;;;;;;;;;24.00;65.50;;;;;;5079621;28;20291;-70
2022/08/04 03:53:11;;;;;;;;;;;23.90;65.50;;;;;;5112027;27;19916;-70
2022/08/04 03:55:42;;;;;;;;;;;23.90;65.60;;;;;;5091130;28;20034;-70
2022/08/04 03:58:08;;;;;;;;;;;23.90;65.70;;;;;;5104153;28;19915;-81
2022/08/04 04:00:52;;;;;;;;;;;23.90;65.80;;;;;;5093880;28;19930;-69
2022/08/04 04:03:21;;;;;;;;;;;23.90;65.80;;;;;;5099306;28;19927;-70
2022/08/04 04:06:05;;;;;;;;;;;23.80;65.70;;;;;;5097151;28;19976;-69
2022/08/04 04:08:57;;;;;;;;;;;23.80;65.70;;;;;;5094569;28;20368;-81
2022/08/04 04:11:28;;;;;;;;;;;23.80;65.90;;;;;;5066230;28;19912;-81
2022/08/04 04:14:10;;;;;;;;;;;23.80;65.90;;;;;;5099129;28;20291;-81
2022/08/04 04:16:42;;;;;;;;;;;23.80;66.00;;;;;;5100126;28;20299;-70
2022/08/04 04:19:27;;;;;;;;;;;23.70;66.00;;;;;;5096945;28;19969;-70
2022/08/04 04:21:58;;;;;;;;;;;23.70;66.20;;;;;;5097870;28;19923;-71
2022/08/04 04:24:42;;;;;;;;;;;23.70;66.20;;;;;;5101902;28;19944;-70
2022/08/04 04:27:14;;;;;;;;;;;23.70;66.30;;;;;;5102170;28;19920;-70
2022/08/04 04:29:40;;;;;;;;;;;23.70;66.30;;;;;;5103183;28;19916;-70
2022/08/04 04:32:18;;;;;;;;;;;23.70;66.40;;;;;;5100256;28;20430;-70
2022/08/04 04:34:46;;;;;;;;;;;23.70;66.30;;;;;;5104638;28;19919;-70
2022/08/04 04:37:20;;;;;;;;;;;23.70;66.40;;;;;;5104184;28;19969;-69
2022/08/04 04:39:54;;;;;;;;;;;23.70;66.60;;;;;;5103342;28;20370;-69
2022/08/04 04:42:39;;;;;;;;;;;23.70;66.70;;;;;;5101259;28;19954;-69
2022/08/04 04:45:10;;;;;;;;;;;23.70;66.70;;;;;;5103997;28;20374;-69
2022/08/04 04:47:41;;;;;;;;;;;23.70;66.70;;;;;;5100717;28;20333;-69
2022/08/04 04:50:10;;;;;;;;;;;23.80;66.50;;;;;;5093269;28;19937;-83
2022/08/04 04:52:54;;;;;;;;;;;23.90;66.30;;;;;;5095524;28;19938;-70
2022/08/04 04:55:32;;;;;;;;;;;23.90;66.10;;;;;;5098584;28;20383;-70
2022/08/04 04:58:00;;;;;;;;;;;24.00;66.00;;;;;;5085070;28;19916;-82
2022/08/04 05:00:33;;;;;;;;;;;24.10;65.90;;;;;;5087423;28;19912;-82
2022/08/04 05:03:04;;;;;;;;;;;24.20;65.90;;;;;;5087448;28;19928;-82
2022/08/04 05:05:42;;;;;;;;;;;24.20;66.10;;;;;;5087859;28;19919;-82
2022/08/04 05:08:16;;;;;;;;;;;24.20;66.10;;;;;;5090012;28;19908;-82
2022/08/04 05:10:50;;;;;;;;;;;24.20;65.90;;;;;;5087373;28;19916;-82
2022/08/04 05:13:32;;;;;;;;;;;24.30;65.80;;;;;;5085498;28;19936;-82
2022/08/04 05:16:00;;;;;;;;;;;24.40;65.60;;;;;;5089032;28;19912;-82
2022/08/04 05:18:29;;;;;;;;;;;24.40;65.50;;;;;;5084306;28;19908;-82
2022/08/04 05:21:07;;;;;;;;;;;24.50;65.30;;;;;;5078785;28;19916;-82
2022/08/04 05:23:36;;;;;;;;;;;24.60;65.10;;;;;;5085217;28;19916;-81
2022/08/04 05:26:12;;;;;;;;;;;24.70;65.00;;;;;;5086990;28;20013;-81
2022/08/04 05:28:58;;;;;;;;;;;24.70;64.90;;;;;;5081132;28;19912;-82
2022/08/04 05:31:25;;;;;;;;;;;24.80;64.70;;;;;;5088012;28;20021;-70
2022/08/04 05:33:51;;;;;;;;;;;24.90;64.60;;;;;;5087359;28;19909;-70
2022/08/04 05:36:18;;;;;;;;;;;25.00;64.50;;;;;;5087253;28;19923;-70
2022/08/04 05:38:44;;;;;;;;;;;25.10;64.30;;;;;;5091289;28;20002;-69
2022/08/04 05:41:10;;;;;;;;;;;25.20;64.20;;;;;;5071605;28;19967;-69
2022/08/04 05:43:41;;;;;;;;;;;25.30;63.90;;;;;;5089446;28;20489;-69
2022/08/04 05:46:08;;;;;;;;;;;25.30;63.80;;;;;;5089839;28;20212;-69
2022/08/04 05:48:34;;;;;;;;;;;25.40;63.80;;;;;;5088310;28;19912;-69
2022/08/04 05:51:00;;;;;;;;;;;25.50;63.60;;;;;;5078863;28;19916;-80
2022/08/04 05:53:27;;;;;;;;;;;25.50;63.50;;;;;;5091594;28;19916;-81
2022/08/04 05:55:54;;;;;;;;;;;25.60;63.40;;;;;;5090537;28;19916;-81
2022/08/04 05:58:19;;;;;;;;;;;25.70;63.40;;;;;;5089562;28;19998;-81
2022/08/04 06:00:45;;;;;;;;;;;25.70;63.20;;;;;;5094788;28;20390;-80
2022/08/04 06:03:12;;;;;;;;;;;25.70;63.10;;;;;;5089703;28;20302;-81
2022/08/04 06:05:39;;;;;;;;;;;25.80;63.00;;;;;;5084919;28;19920;-81
2022/08/04 06:08:05;;;;;;;;;;;25.90;63.00;;;;;;5095014;28;19908;-70
2022/08/04 06:10:31;;;;;;;;;;;25.90;62.90;;;;;;5091493;28;19916;-70
2022/08/04 06:13:05;;;;;;;;;;;25.90;62.80;;;;;;5087700;28;19912;-70
2022/08/04 06:15:34;;;;;;;;;;;26.00;62.80;;;;;;5088282;28;19916;-70
2022/08/04 06:18:01;;;;;;;;;;;26.00;62.70;;;;;;5092283;28;19920;-70
2022/08/04 06:20:29;;;;;;;;;;;26.10;62.70;;;;;;5098156;28;20002;-81
2022/08/04 06:22:56;;;;;;;;;;;26.20;62.40;;;;;;5092998;28;20268;-81
2022/08/04 06:25:23;;;;;;;;;;;26.30;62.30;;;;;;5085333;28;19922;-81
2022/08/04 06:27:49;;;;;;;;;;;26.40;62.20;;;;;;5087472;28;19923;-81
2022/08/04 06:30:17;;;;;;;;;;;26.40;62.00;;;;;;5102324;28;20013;-70
2022/08/04 06:32:47;;;;;;;;;;;26.50;62.00;;;;;;5080031;28;19954;-70
2022/08/04 06:35:17;;;;;;;;;;;26.50;61.90;;;;;;5099654;28;20010;-70
2022/08/04 06:37:44;;;;;;;;;;;26.60;61.90;;;;;;5093466;28;19977;-70
2022/08/04 06:40:11;;;;;;;;;;;26.70;61.80;;;;;;5086220;28;20423;-70
2022/08/04 06:42:37;;;;;;;;;;;26.80;62.20;;;;;;5082884;28;19927;-81
2022/08/04 06:45:04;;;;;;;;;;;26.90;61.40;;;;;;5087454;28;20592;-81
2022/08/04 06:47:30;;;;;;;;;;;26.90;61.10;;;;;;5084205;28;19924;-81
2022/08/04 06:49:56;;;;;;;;;;;27.10;61.00;;;;;;5091300;28;19919;-80
2022/08/04 06:52:22;;;;;;;;;;;27.20;60.80;;;;;;5094094;28;19919;-82
2022/08/04 06:54:49;;;;;;;;;;;27.20;60.60;;;;;;5091444;28;19927;-69
2022/08/04 06:57:22;;;;;;;;;;;27.30;60.50;;;;;;5087136;27;19928;-80
2022/08/04 06:59:50;;;;;;;;;;;27.40;60.50;;;;;;5085337;28;20374;-80
2022/08/04 07:02:19;;;;;;;;;;;27.40;60.40;;;;;;5086280;28;19925;-80
2022/08/04 07:04:45;;;;;;;;;;;27.50;60.40;;;;;;5084894;28;19916;-69
2022/08/04 07:07:11;;;;;;;;;;;27.50;60.40;;;;;;5089376;28;19912;-69
2022/08/04 07:09:37;;;;;;;;;;;27.50;60.20;;;;;;5083417;28;20015;-69
2022/08/04 07:12:04;;;;;;;;;;;27.60;60.20;;;;;;5074080;28;19927;-69
2022/08/04 07:14:30;;;;;;;;;;;27.50;60.10;;;;;;5096086;28;19916;-80
2022/08/04 07:16:55;;;;;;;;;;;27.60;60.10;;;;;;5087585;28;19922;-69
2022/08/04 07:19:21;;;;;;;;;;;27.60;59.80;;;;;;5082481;28;19912;-69
2022/08/04 07:21:47;;;;;;;;;;;27.70;59.40;;;;;;5068906;28;19931;-80
2022/08/04 07:24:14;;;;;;;;;;;27.80;59.20;;;;;;5086791;28;19931;-80
2022/08/04 07:26:40;;;;;;;;;;;28.00;58.80;;;;;;5089504;28;19916;-70
2022/08/04 07:29:05;;;;;;;;;;;28.10;58.70;;;;;;5088557;28;19912;-69
2022/08/04 07:31:31;;;;;;;;;;;28.20;57.90;;;;;;5094794;28;19959;-80
2022/08/04 07:33:58;;;;;;;;;;;28.30;57.80;;;;;;5085717;28;19920;-80
2022/08/04 07:36:23;;;;;;;;;;;28.40;57.60;;;;;;5089584;28;20445;-80
2022/08/04 07:38:49;;;;;;;;;;;28.50;56.90;;;;;;5101048;28;19936;-80
2022/08/04 07:41:17;;;;;;;;;;;28.50;56.40;;;;;;5081864;28;21070;-80
2022/08/04 07:43:43;;;;;;;;;;;28.60;56.50;;;;;;5091153;28;20364;-80
2022/08/04 07:46:09;;;;;;;;;;;28.70;56.40;;;;;;5086114;28;19948;-80
2022/08/04 07:48:34;;;;;;;;;;;28.90;56.00;;;;;;5088189;28;19927;-80
2022/08/04 07:51:09;;;;;;;;;;;29.00;55.90;;;;;;5113954;27;20396;-80
2022/08/04 07:53:35;;;;;;;;;;;29.10;55.60;;;;;;5098775;28;19920;-80
2022/08/04 07:56:01;;;;;;;;;;;29.30;55.10;;;;;;5102930;28;19927;-80
2022/08/04 07:58:27;;;;;;;;;;;29.30;54.50;;;;;;5094650;28;19916;-80
2022/08/04 08:00:53;;;;;;;;;;;29.40;54.30;;;;;;5095156;28;19953;-80
2022/08/04 08:03:28;;;;;;;;;;;29.40;54.50;;;;;;5097497;28;19939;-79
2022/08/04 08:05:54;;;;;;;;;;;29.50;53.80;;;;;;5100746;28;19923;-80
2022/08/04 08:08:20;;;;;;;;;;;29.50;53.60;;;;;;5092292;28;19969;-80
2022/08/04 08:10:47;;;;;;;;;;;29.60;53.10;;;;;;5096800;28;20297;-81
2022/08/04 08:13:13;;;;;;;;;;;29.60;52.90;;;;;;5095884;28;19927;-80
2022/08/04 08:15:39;;;;;;;;;;;29.70;52.80;;;;;;5101626;28;20225;-80
2022/08/04 08:18:04;;;;;;;;;;;29.80;52.20;;;;;;5097742;28;19923;-79
2022/08/04 08:20:30;;;;;;;;;;;29.90;52.50;;;;;;5096483;28;19950;-79
2022/08/04 08:22:56;;;;;;;;;;;29.90;52.50;;;;;;5092157;28;19927;-79
2022/08/04 08:25:21;;;;;;;;;;;30.00;52.20;;;;;;5093415;28;19919;-79
2022/08/04 08:27:47;;;;;;;;;;;30.10;51.80;;;;;;5104964;28;20346;-79
2022/08/04 08:30:13;;;;;;;;;;;30.10;51.30;;;;;;5091128;28;20394;-79
2022/08/04 08:32:39;;;;;;;;;;;30.10;51.60;;;;;;5073382;28;19963;-79
2022/08/04 08:35:05;;;;;;;;;;;30.20;51.30;;;;;;5083453;28;19919;-79
2022/08/04 08:37:36;;;;;;;;;;;30.20;51.30;;;;;;5091374;28;19913;-79
2022/08/04 08:40:11;;;;;;;;;;;30.30;51.20;;;;;;5090091;28;19908;-79
2022/08/04 08:42:45;;;;;;;;;;;30.30;50.70;;;;;;5088875;28;19923;-79
2022/08/04 08:45:29;;;;;;;;;;;30.30;51.10;;;;;;5087435;28;20331;-70
2022/08/04 08:48:15;;;;;;;;;;;30.40;51.40;;;;;;5088720;28;19962;-78
2022/08/04 08:50:51;;;;;;;;;;;30.60;50.90;;;;;;5087257;28;19912;-79
2022/08/04 08:53:20;;;;;;;;;;;30.70;51.10;;;;;;5080095;28;19970;-70
2022/08/04 08:55:48;;;;;;;;;;;30.70;50.40;;;;;;5086644;28;19912;-70
2022/08/04 08:58:25;;;;;;;;;;;30.70;50.70;;;;;;5089134;28;20422;-70
2022/08/04 09:01:12;;;;;;;;;;;30.90;50.90;;;;;;5085680;28;20414;-70
2022/08/04 09:03:51;;;;;;;;;;;31.10;50.80;;;;;;5076984;28;19928;-70
2022/08/04 09:06:35;;;;;;;;;;;31.30;50.70;;;;;;5090427;28;20389;-78
2022/08/04 09:09:19;;;;;;;;;;;31.40;50.30;;;;;;5086100;28;20263;-79
2022/08/04 09:11:48;;;;;;;;;;;31.60;51.00;;;;;;5088287;28;19916;-79
2022/08/04 09:14:14;;;;;;;;;;;31.60;49.70;;;;;;5086722;28;19912;-79
2022/08/04 09:16:44;;;;;;;;;;;31.70;49.60;;;;;;5089502;28;19919;-78
2022/08/04 09:19:32;;;;;;;;;;;31.70;49.70;;;;;;5094597;28;19961;-70
2022/08/04 09:22:01;;;;;;;;;;;31.70;49.70;;;;;;5082315;28;20010;-70
2022/08/04 09:24:33;;;;;;;;;;;31.60;50.10;;;;;;5101304;28;20383;-70
2022/08/04 09:27:04;;;;;;;;;;;31.60;50.30;;;;;;5091116;28;19912;-78
2022/08/04 09:29:38;;;;;;;;;;;31.60;50.20;;;;;;5092647;28;19959;-79
2022/08/04 09:32:22;;;;;;;;;;;31.60;50.20;;;;;;5078579;28;19912;-78
2022/08/04 09:35:06;;;;;;;;;;;31.60;49.70;;;;;;5094343;28;19912;-78
2022/08/04 09:37:43;;;;;;;;;;;31.50;49.80;;;;;;5079549;28;19912;-79
2022/08/04 09:40:11;;;;;;;;;;;31.40;49.70;;;;;;5085974;28;19920;-79
2022/08/04 09:42:57;;;;;;;;;;;31.40;50.10;;;;;;5094892;28;19948;-79
2022/08/04 09:45:35;;;;;;;;;;;31.50;50.10;;;;;;5057179;28;19920;-78
2022/08/04 09:48:00;;;;;;;;;;;31.70;49.90;;;;;;5087564;28;19916;-78
2022/08/04 09:50:26;;;;;;;;;;;31.70;49.80;;;;;;5078511;28;19908;-70
2022/08/04 09:52:58;;;;;;;;;;;31.80;49.80;;;;;;5091187;28;20282;-70
2022/08/04 09:55:49;;;;;;;;;;;31.90;49.50;;;;;;5086762;28;19920;-70
2022/08/04 09:58:33;;;;;;;;;;;31.90;49.50;;;;;;5078315;28;19943;-70
2022/08/04 10:01:04;;;;;;;;;;;31.80;49.80;;;;;;5088314;28;19972;-70
2022/08/04 10:03:39;;;;;;;;;;;31.80;50.00;;;;;;5088928;28;19920;-70
2022/08/04 10:06:09;;;;;;;;;;;31.90;50.20;;;;;;5086520;28;19912;-70
2022/08/04 10:09:04;;;;;;;;;;;31.90;50.30;;;;;;5089513;28;19919;-70
2022/08/04 10:11:38;;;;;;;;;;;31.80;50.40;;;;;;5032401;28;19910;-70
2022/08/04 10:14:09;;;;;;;;;;;31.90;50.60;;;;;;5090102;28;19939;-70
2022/08/04 10:16:55;;;;;;;;;;;31.90;50.40;;;;;;5089874;28;19908;-78
2022/08/04 10:19:30;;;;;;;;;;;31.80;50.40;;;;;;5094658;28;19948;-79
2022/08/04 10:22:16;;;;;;;;;;;31.70;50.40;;;;;;5091658;28;20021;-79
2022/08/04 10:24:51;;;;;;;;;;;31.60;50.20;;;;;;5079149;28;19912;-78
2022/08/04 10:27:35;;;;;;;;;;;31.50;50.50;;;;;;5094173;28;19918;-79
2022/08/04 10:30:09;;;;;;;;;;;31.40;50.50;;;;;;5075421;28;20404;-79
2022/08/04 10:32:40;;;;;;;;;;;31.30;50.00;;;;;;5091912;28;20492;-70
2022/08/04 10:35:17;;;;;;;;;;;31.10;50.10;;;;;;5092808;28;19909;-79
2022/08/04 10:37:47;;;;;;;;;;;30.90;50.50;;;;;;5093111;28;19954;-70
2022/08/04 10:40:39;;;;;;;;;;;30.80;50.80;;;;;;5089110;28;19912;-70
2022/08/04 10:43:17;;;;;;;;;;;30.70;50.90;;;;;;5089441;28;20375;-79
2022/08/04 10:45:48;;;;;;;;;;;30.60;51.00;;;;;;5091457;28;19908;-78
2022/08/04 10:48:32;;;;;;;;;;;30.50;51.40;;;;;;5093806;28;19908;-78
2022/08/04 10:51:14;;;;;;;;;;;30.30;51.40;;;;;;5090610;28;19974;-78
2022/08/04 10:53:40;;;;;;;;;;;30.20;51.80;;;;;;5091172;28;19920;-78
2022/08/04 10:56:28;;;;;;;;;;;30.00;52.20;;;;;;5092663;28;19916;-79
2022/08/04 10:58:58;;;;;;;;;;;29.80;52.50;;;;;;5093622;28;19912;-78
2022/08/04 11:01:32;;;;;;;;;;;29.80;52.80;;;;;;5093800;28;20282;-78
2022/08/04 11:04:07;;;;;;;;;;;29.70;53.40;;;;;;5093523;28;20426;-79
2022/08/04 11:06:33;;;;;;;;;;;29.60;53.50;;;;;;5098759;28;19908;-77
2022/08/04 11:09:00;;;;;;;;;;;29.50;54.20;;;;;;5102489;28;19941;-75
2022/08/04 11:11:31;;;;;;;;;;;29.30;55.40;;;;;;5092249;28;19954;-76
2022/08/04 11:14:17;;;;;;;;;;;29.10;56.50;;;;;;5089017;28;19916;-77
2022/08/04 11:16:47;;;;;;;;;;;28.90;58.10;;;;;;5096953;28;19969;-75
2022/08/04 11:19:12;;;;;;;;;;;28.60;58.90;;;;;;5113595;28;19933;-74
2022/08/04 11:22:04;;;;;;;;;;;28.50;59.90;;;;;;5108999;28;20006;-73
2022/08/04 11:24:43;;;;;;;;;;;28.30;60.10;;;;;;5054957;28;19909;-74
2022/08/04 11:27:18;;;;;;;;;;;28.20;61.00;;;;;;5081144;28;20664;-73
2022/08/04 11:30:03;;;;;;;;;;;28.00;61.80;;;;;;5090284;28;19912;-74
2022/08/04 11:32:33;;;;;;;;;;;27.90;62.20;;;;;;5083384;28;19916;-74
2022/08/04 11:35:00;;;;;;;;;;;27.90;63.30;;;;;;5087127;28;19916;-73
2022/08/04 11:37:29;;;;;;;;;;;27.80;63.90;;;;;;5090985;28;19947;-73
2022/08/04 11:40:02;;;;;;;;;;;27.80;65.20;;;;;;5086029;28;19923;-73
2022/08/04 11:42:51;;;;;;;;;;;27.70;65.20;;;;;;5081197;28;20409;-73
2022/08/04 11:45:23;;;;;;;;;;;27.60;65.70;;;;;;5080397;28;20324;-68
2022/08/04 11:47:54;;;;;;;;;;;27.60;66.50;;;;;;5090108;28;19955;-68
2022/08/04 11:50:20;;;;;;;;;;;27.60;67.00;;;;;;5083345;28;20259;-68
2022/08/04 11:52:47;;;;;;;;;;;27.60;66.80;;;;;;5088139;28;19965;-68
2022/08/04 11:55:15;;;;;;;;;;;27.60;66.80;;;;;;5089307;28;20445;-74
2022/08/04 11:57:42;;;;;;;;;;;27.60;66.90;;;;;;5082074;28;19908;-74
2022/08/04 12:00:11;;;;;;;;;;;27.60;66.90;;;;;;5087518;28;19999;-68
2022/08/04 12:02:55;;;;;;;;;;;27.60;67.10;;;;;;5086809;28;19967;-74
2022/08/04 12:05:35;;;;;;;;;;;27.50;67.00;;;;;;5072947;28;20252;-74
2022/08/04 12:08:20;;;;;;;;;;;27.40;67.30;;;;;;5077044;28;19912;-74
2022/08/04 12:11:21;;;;;;;;;;;27.50;67.50;;;;;;5071237;28;19927;-74
2022/08/04 12:13:49;;;;;;;;;;;27.50;68.10;;;;;;5019723;28;19920;-74
2022/08/04 12:16:28;;;;;;;;;;;27.50;68.10;;;;;;5075799;28;19912;-74
2022/08/04 12:19:00;;;;;;;;;;;27.50;68.10;;;;;;5082381;28;20364;-74
2022/08/04 12:21:47;;;;;;;;;;;27.60;68.70;;;;;;5089377;28;19915;-74
2022/08/04 12:24:18;;;;;;;;;;;27.50;68.70;;;;;;5088558;28;20002;-74
2022/08/04 12:26:50;;;;;;;;;;;27.60;68.80;;;;;;5088574;28;19908;-74
2022/08/04 12:29:17;;;;;;;;;;;27.60;68.90;;;;;;5090310;28;20321;-74
2022/08/04 12:31:48;;;;;;;;;;;27.60;68.70;;;;;;5090792;28;19956;-74
2022/08/04 12:34:23;;;;;;;;;;;27.70;68.80;;;;;;5090210;28;19922;-74
2022/08/04 12:37:01;;;;;;;;;;;27.90;68.80;;;;;;5094447;28;19952;-74
2022/08/04 12:39:27;;;;;;;;;;;28.10;68.40;;;;;;5083552;28;19916;-74
2022/08/04 12:42:04;;;;;;;;;;;28.30;68.00;;;;;;5083281;28;20411;-74
2022/08/04 12:44:32;;;;;;;;;;;28.40;67.60;;;;;;5084988;28;19958;-75
2022/08/04 12:46:58;;;;;;;;;;;28.50;67.50;;;;;;5087245;28;19916;-75
2022/08/04 12:49:24;;;;;;;;;;;28.50;67.20;;;;;;5093627;28;19923;-75
2022/08/04 12:51:51;;;;;;;;;;;28.50;67.10;;;;;;5091586;28;19920;-75
2022/08/04 12:54:22;;;;;;;;;;;28.50;67.10;;;;;;5089901;28;19944;-75
2022/08/04 12:56:48;;;;;;;;;;;28.50;67.10;;;;;;5090197;28;20015;-75
2022/08/04 12:59:14;;;;;;;;;;;28.60;67.30;;;;;;5091805;28;20267;-68
2022/08/04 13:01:45;;;;;;;;;;;28.70;67.10;;;;;;5092060;28;19973;-69
2022/08/04 13:04:14;;;;;;;;;;;29.00;66.60;;;;;;5092822;28;19932;-69
2022/08/04 13:06:40;;;;;;;;;;;29.40;66.00;;;;;;5077739;28;19916;-69
2022/08/04 13:09:10;;;;;;;;;;;29.60;65.50;;;;;;5094049;28;19918;-69
2022/08/04 13:11:45;;;;;;;;;;;29.70;64.40;;;;;;5090939;28;19934;-69
2022/08/04 13:14:12;;;;;;;;;;;29.70;63.80;;;;;;5082000;28;19919;-70
2022/08/04 13:16:37;;;;;;;;;;;29.70;63.50;;;;;;5091614;28;20010;-76
2022/08/04 13:19:06;;;;;;;;;;;29.60;63.00;;;;;;5086641;28;19958;-75
2022/08/04 13:21:31;;;;;;;;;;;29.50;62.80;;;;;;5084724;28;19935;-75
2022/08/04 13:24:01;;;;;;;;;;;29.40;62.70;;;;;;5087052;28;20379;-76
2022/08/04 13:26:27;;;;;;;;;;;29.50;62.70;;;;;;5094251;28;19982;-74
2022/08/04 13:28:54;;;;;;;;;;;29.80;62.30;;;;;;5094879;28;20352;-75
2022/08/04 13:31:25;;;;;;;;;;;30.40;61.20;;;;;;5085811;28;20634;-70
2022/08/04 13:33:52;;;;;;;;;;;30.80;59.90;;;;;;5093267;28;19983;-75
2022/08/04 13:36:23;;;;;;;;;;;31.00;59.40;;;;;;5095598;28;19919;-75
2022/08/04 13:38:52;;;;;;;;;;;31.30;59.10;;;;;;5083879;28;20306;-70
2022/08/04 13:41:19;;;;;;;;;;;31.70;58.30;;;;;;5091418;28;19919;-70
2022/08/04 13:43:46;;;;;;;;;;;31.90;58.00;;;;;;5092710;28;19920;-70
2022/08/04 13:46:15;;;;;;;;;;;32.10;57.60;;;;;;5089505;28;20006;-69
2022/08/04 13:48:40;;;;;;;;;;;32.20;56.40;;;;;;5088318;28;19908;-69
2022/08/04 13:51:08;;;;;;;;;;;32.10;55.10;;;;;;5088517;28;20036;-70
2022/08/04 13:53:34;;;;;;;;;;;32.20;54.50;;;;;;5095119;28;20006;-70
2022/08/04 13:56:01;;;;;;;;;;;32.40;52.90;;;;;;5091596;28;20256;-70
2022/08/04 13:58:30;;;;;;;;;;;32.50;51.80;;;;;;5082289;28;19935;-71
2022/08/04 14:01:04;;;;;;;;;;;32.70;51.70;;;;;;5091771;28;19912;-76
2022/08/04 14:03:33;;;;;;;;;;;33.10;51.90;;;;;;5091464;28;19961;-71
2022/08/04 14:06:11;;;;;;;;;;;33.50;51.70;;;;;;5089589;28;19956;-70
2022/08/04 14:08:48;;;;;;;;;;;33.60;51.40;;;;;;5097495;28;20427;-70
2022/08/04 14:11:15;;;;;;;;;;;33.40;50.10;;;;;;5091058;28;19934;-76
2022/08/04 14:13:41;;;;;;;;;;;33.20;50.40;;;;;;5094652;28;19940;-76
2022/08/04 14:16:16;;;;;;;;;;;32.90;49.90;;;;;;5091895;28;19948;-76
2022/08/04 14:18:42;;;;;;;;;;;32.70;50.10;;;;;;5082309;28;19908;-76
2022/08/04 14:21:10;;;;;;;;;;;32.60;51.00;;;;;;5091200;28;19923;-76
2022/08/04 14:23:46;;;;;;;;;;;32.80;51.20;;;;;;5093359;28;19920;-76
2022/08/04 14:26:13;;;;;;;;;;;32.90;50.00;;;;;;5092520;28;20284;-76
2022/08/04 14:28:38;;;;;;;;;;;32.80;49.50;;;;;;5092484;28;20336;-70
2022/08/04 14:31:08;;;;;;;;;;;32.80;50.40;;;;;;5090732;28;20011;-70
2022/08/04 14:33:39;;;;;;;;;;;32.70;50.00;;;;;;5092578;28;19954;-70
2022/08/04 14:36:04;;;;;;;;;;;32.60;49.10;;;;;;5089756;28;19912;-70
2022/08/04 14:38:43;;;;;;;;;;;32.50;48.80;;;;;;5091045;28;19927;-70
2022/08/04 14:41:09;;;;;;;;;;;32.50;48.10;;;;;;5089172;28;19915;-70
2022/08/04 14:43:45;;;;;;;;;;;32.50;47.50;;;;;;5091295;28;20353;-70